KTRL/TRL METAR and TAF weather

Enter ICAO airport designator
Station Type Date Time Source
KTRL METAR 2021/05/14 03:53 UTC NOAA

KTRL 140353Z AUTO 06003KT 10SM CLR 16/12 A3024 RMK AO2 SLP238 T01560117


Station Type Date Time Source
KTRL Decoded METAR 2021/05/14 03:53 UTC NOAA

TERRELL MUNICIPAL AIRPORT, TX, United States (KTRL) 32-43N 96-16W 144M
May 13, 2021 - 11:53 PM EDT / 2021.05.14 0353 UTC
Wind: from the ENE (060 degrees) at 3 MPH (3 KT):0
Visibility: 10 mile(s):0
Sky conditions: clear
Temperature: 60.1 F (15.6 C)
Dew Point: 53.1 F (11.7 C)
Relative Humidity: 77%
Pressure (altimeter): 30.24 in. Hg (1024 hPa)
ob: KTRL 140353Z AUTO 06003KT 10SM CLR 16/12 A3024 RMK AO2 SLP238 T01560117
cycle: 4

Station Type Date Time Source
KTRL TAF UTC NOAA

Error!

Example: see airport list